Mantua, UT (84324)

6:54 PM MDT on August 28, 2014 (GMT -0600)
Brigham City 1423 | Change Station
CLOSE
Current Station
Personal Weather Station
Location: Brigham City, UT
Elevation: 4590 ft
Nearby Weather Stations

Elev 4590 ft 41.50 °N, 111.99 °W | Updated 4 minutes ago

Clear
Clear
80.7 °F
Feels Like 80 °F
N
2.0
Wind Variable Wind from West
Gusts 3.0 mph

Today
High -- | Low -- °F
--% Chance of Precip.
Yesterday
High -- | Low -- °F
Precip. -- in
6:49 AM 8:07 PM
Waxing Crescent, 11% visible
Pressure 30.10 in
Visibility 10.0 miles
Clouds Clear
Heat Index 80 °F
Dew Point 46 °F
Humidity 29%
Rainfall 0.00 in
Snow Depth 0 in
UV 1 out of 12
Pollen 8.30 out of 12
PM2.5 Good
Flu Activity Not available.
METAR KBMC 290035Z AUTO 21003KT 10SM CLR 28/03 A3010 RMK AO1 T02790027

More Conditions Fewer Conditions

Pressure 30.10 in
Visibility 10.0 miles
Clouds Clear
Heat Index 80 °F
Dew Point 46 °F
Humidity 29%
Rainfall 0.00 in
Snow Depth 0 in
UV 1 out of 12
Pollen 8.30 out of 12
PM2.5 Good
Flu Activity Not available.
METAR KBMC 290035Z AUTO 21003KT 10SM CLR 28/03 A3010 RMK AO1 T02790027

More Conditions Fewer Conditions

10-Day Weather Forecast

Almanac

Astronomy

Aug. 28, 2014 Rise Set
Actual Time 6:49 AM MDT 8:07 PM MDT
Civil Twilight 6:21 AM MDT 8:35 PM MDT
Nautical Twilight 5:46 AM MDT 9:10 PM MDT
Astronomical Twilight 5:10 AM MDT 9:46 PM MDT
Moon 9:48 AM MDT (8/28) 9:30 PM MDT (8/28)
Length of Visible Light 14h 14m
Length of Day
13h 17m
Tomorrow will be 2m 37s shorter.
Waxing Crescent, 11% of the Moon is Illuminated
Today
Waxing Crescent
Sep 2
First Quarter
Sep 8
Full
Sep 15
Last Quarter
Sep 24
New

Today's Extremes

State Highs State Lows

Community

WunderPhotos

Upload Photos

1,748,112 photos uploaded!

Nearby

Air Quality

  Air Quality AQ Index Pollutant
Yesterday Good
OZONE
Yesterday Good
PM2.5
Current Good
PM2.5
Thursday Good
OZONE
Friday Good
OZONE

Snow Depth

Station Depth Elevation
Ben Lomond Trail 0 in 6000 ft
Trial Lake 0 in 9960 ft
Daniels-Strawberry 0 in 8000 ft
Rock Creek 0 in 7900 ft
Mosby Mountain 0 in 9500 ft

Earthquake Activity

City Distance Mag. Time & Date
No recent earthquake activity has been reported nearby.
Minimum magnitude displayed is 2.5.

Coastal Water Temperatures

Place Temperature
No Stations Reporting

Nearby Weather Stations